Latest Weather Observations for Richmond

IDQ60801

Issued at 7:31 am EST Friday 19 December 2014 (issued every 30 minutes, with the page automatically refreshed every 10 minutes)

About weather observations | Map of weather stations | Latest weather observations for QLD | Other Formats
Station Details ID: 030161 Name: RICHMOND AIRPORT Lat: -20.70 Lon: 143.12 Height: 206.3 m
Data from the previous 72 hours. | See also: Recent months at Richmond
Date/Time
EST
Temp
°C
App
Temp
°C
Dew
Point
Rel
Hum
%
Delta-T
°C
Wind Press
QNH
hPa
Press
MSL
hPa
Rain
since 9 am
mm
Dir
 
Spd
km/h
Gust
km/h
Spd
kts
Gust
kts
19/07:30am 24.2 24.5 20.3 79 2.6 SSE 19 22 10 12 1012.5 1011.0 0.0
19/07:00am 23.3 23.9 20.2 83 2.0 SSE 17 22 9 12 1012.3 1010.8 0.0
19/06:30am 22.7 24.0 20.2 86 1.6 SSE 13 17 7 9 1011.8 1010.2 0.0
19/06:00am 22.1 23.3 19.8 87 1.5 SSE 13 15 7 8 1011.2 1009.6 0.0
19/05:30am 21.7 22.9 19.8 89 1.2 SSE 13 15 7 8 1010.8 1009.2 0.0
19/05:00am 21.3 22.0 19.6 90 1.1 S 15 17 8 9 1010.4 1008.8 0.0
19/04:30am 21.3 22.7 19.6 90 1.1 SSW 11 13 6 7 1010.0 1008.4 0.0
19/04:00am 21.1 22.0 19.2 89 1.2 SSW 13 15 7 8 1009.6 1008.0 0.0
19/03:30am 21.4 23.2 18.8 85 1.6 WSW 7 11 4 6 1009.8 1008.2 0.0
19/03:00am 21.5 23.2 18.5 83 1.9 SW 7 11 4 6 1010.0 1008.4 0.0
19/02:30am 21.8 23.3 19.0 84 1.8 SW 9 11 5 6 1010.4 1008.8 0.0
19/02:00am 21.8 23.0 19.0 84 1.8 SW 11 13 6 7 1010.6 1009.0 0.0
19/01:30am 22.3 25.5 19.7 85 1.7 N 2 6 1 3 1010.5 1008.9 0.0
19/01:00am 22.5 24.3 19.5 83 1.9 N 9 9 5 5 1011.1 1009.5 0.0
19/12:30am 22.9 25.1 19.5 81 2.2 NE 7 9 4 5 1010.9 1009.3 0.0
19/12:00am 23.2 25.1 19.8 81 2.2 E 9 13 5 7 1011.4 1009.8 0.0
 
Date/Time
EST
Temp
°C
App
Temp
°C
Dew
Point
Rel
Hum
%
Delta-T
°C
Wind Press
QNH
hPa
Press
MSL
hPa
Rain
since 9 am
mm
Dir
 
Spd
km/h
Gust
km/h
Spd
kts
Gust
kts
18/11:30pm 23.1 25.3 19.7 81 2.2 ENE 7 11 4 6 1012.3 1010.8 0.0
18/11:00pm 23.2 25.1 19.8 81 2.2 ENE 9 17 5 9 1012.8 1011.3 0.0
18/10:30pm 23.1 24.2 19.7 81 2.2 ENE 13 22 7 12 1013.4 1011.9 0.0
18/10:00pm 23.0 23.6 19.4 80 2.3 ENE 15 22 8 12 1013.8 1012.3 0.0
18/09:30pm 23.1 23.2 19.1 78 2.6 NNE 17 22 9 12 1014.5 1012.9 0.0
18/09:00pm 24.3 23.8 18.7 71 3.6 NNE 19 24 10 13 1015.0 1013.4 0.0
18/08:30pm 25.2 25.2 18.9 68 4.1 N 17 24 9 13 1014.9 1013.3 0.0
18/08:00pm 24.4 23.6 19.2 73 3.4 SE 22 30 12 16 1013.4 1011.9 0.0
18/07:30pm 24.3 21.4 18.9 72 3.5 S 32 39 17 21 1012.7 1011.2 0.0
18/07:00pm 26.4 22.1 16.9 56 6.0 S 35 46 19 25 1011.9 1010.3 0.0
18/06:30pm 26.4 22.0 16.6 55 6.1 SSE 35 46 19 25 1011.4 1009.8 0.0
18/06:00pm 26.0 20.8 16.5 55 5.9 S 39 52 21 28 1010.8 1009.2 0.0
18/05:30pm 26.4 20.0 16.9 56 6.0 SSW 46 56 25 30 1010.2 1008.6 0.0
18/05:00pm 25.8 19.7 17.7 61 5.1 SSW 46 65 25 35 1009.7 1008.1 0.0
18/04:46pm 25.7 18.8 17.4 60 5.2 SSW 50 69 27 37 1009.2 1007.7 0.0
18/04:30pm 25.5 18.6 18.4 65 4.5 SSW 52 69 28 37 1009.5 1007.9 0.0
18/04:00pm 25.3 19.5 20.8 76 3.0 SW 52 70 28 38 1009.6 1008.0 0.0
18/03:34pm 26.3 19.6 20.8 71 3.6 SW 57 78 31 42 1008.9 1007.4 0.0
18/03:30pm 26.8 20.8 21.1 71 3.8 SW 54 65 29 35 1008.9 1007.4 0.0
18/03:19pm 27.8 24.0 20.6 65 4.8 WSW 41 61 22 33 1008.8 1007.3 0.0
18/03:17pm 28.5 25.7 20.2 60 5.5 WSW 35 61 19 33 1008.7 1007.2 0.0
18/03:12pm 29.5 27.6 21.4 61 5.5 WSW 33 41 18 22 1008.4 1006.9 0.0
18/03:00pm 29.6 26.2 20.7 58 6.0 SW 39 52 21 28 1008.3 1006.8 0.0
18/02:48pm 30.3 25.4 20.2 54 6.7 SW 46 69 25 37 1008.1 1006.6 0.0
18/02:43pm 30.9 27.8 19.6 51 7.5 SW 35 65 19 35 1008.5 1007.0 0.0
18/02:41pm 32.5 30.8 19.7 46 8.5 SW 28 56 15 30 1008.3 1006.8 0.0
18/02:30pm 35.4 34.6 18.5 37 11.1 NW 20 28 11 15 1007.7 1006.1 0.0
18/02:00pm 36.2 34.4 17.8 33 12.1 NNW 24 35 13 19 1008.0 1006.5 0.0
18/01:30pm 36.9 36.5 18.9 34 12.0 NW 19 28 10 15 1008.2 1006.7 0.0
18/01:00pm 36.3 34.7 18.4 35 11.8 NW 24 33 13 18 1008.8 1007.3 0.0
18/12:30pm 37.1 35.0 18.1 32 12.5 NW 26 39 14 21 1008.8 1007.3 0.0
18/12:00pm 37.2 35.2 18.2 32 12.6 NW 26 37 14 20 1008.6 1007.1 0.0
18/11:30am 37.9 36.4 17.8 30 13.2 NW 22 32 12 17 1008.8 1007.3 0.0
18/11:00am 38.0 36.2 16.9 29 13.7 NNW 22 32 12 17 1008.9 1007.4 0.0
18/10:30am 37.1 34.4 16.6 29 13.2 NW 26 33 14 18 1009.2 1007.7 0.0
18/10:00am 35.5 32.9 15.8 31 12.5 NNW 24 33 13 18 1009.2 1007.7 0.0
18/09:30am 34.7 32.0 16.5 33 11.7 NNW 26 35 14 19 1009.6 1008.0 0.0
18/09:00am 33.4 31.8 19.1 42 9.5 N 26 37 14 20 1010.1 1008.5 0.0
18/08:30am 32.0 30.8 19.3 47 8.4 N 24 37 13 20 1010.0 1008.4 0.0
18/08:00am 29.5 27.7 20.4 58 6.1 N 30 39 16 21 1010.2 1008.6 0.0
18/07:30am 28.3 26.6 20.6 63 5.1 N 30 43 16 23 1010.1 1008.5 0.0
18/07:00am 27.1 25.8 20.7 68 4.3 N 28 37 15 20 1009.8 1008.2 0.0
18/06:30am 27.0 24.8 20.3 66 4.4 N 32 43 17 23 1009.2 1007.7 0.0
18/06:00am 27.0 25.7 19.9 65 4.7 N 26 39 14 21 1009.0 1007.5 0.0
18/05:30am 26.8 25.4 18.9 62 5.1 N 24 30 13 16 1008.7 1007.2 0.0
18/05:00am 26.9 26.1 17.9 57 5.7 N 19 24 10 13 1008.8 1007.3 0.0
18/04:30am 27.2 27.4 16.8 53 6.5 N 11 13 6 7 1008.3 1006.8 0.0
18/04:00am 27.2 28.4 16.8 53 6.5 NW 6 9 3 5 1008.3 1006.8 0.0
18/03:30am 27.2 27.5 17.1 54 6.4 SW 11 13 6 7 1008.0 1006.5 0.0
18/03:00am 27.3 27.3 17.2 54 6.4 SSW 13 17 7 9 1008.0 1006.5 0.0
18/02:30am 27.8 25.6 17.0 51 6.8 SSW 24 37 13 20 1007.7 1006.1 0.0
18/02:08am 27.8 27.2 17.6 53 6.5 W 17 43 9 23 1007.8 1006.2 0.0
18/02:00am 27.3 27.8 18.3 58 5.8 WNW 13 20 7 11 1007.0 1005.4 0.0
18/01:30am 26.3 25.7 18.4 61 5.1 NNE 19 24 10 13 1006.4 1004.8 0.0
18/01:00am 26.6 25.7 18.2 60 5.4 NNE 20 26 11 14 1006.5 1004.9 0.0
18/12:30am 26.9 25.9 17.9 57 5.7 NNE 20 28 11 15 1006.9 1005.3 0.0
18/12:00am 27.1 26.2 17.8 56 5.9 NNE 19 24 10 13 1007.1 1005.5 0.0
 
Date/Time
EST
Temp
°C
App
Temp
°C
Dew
Point
Rel
Hum
%
Delta-T
°C
Wind Press
QNH
hPa
Press
MSL
hPa
Rain
since 9 am
mm
Dir
 
Spd
km/h
Gust
km/h
Spd
kts
Gust
kts
17/11:30pm 27.1 25.8 18.1 58 5.8 NNE 22 32 12 17 1007.4 1005.8 0.0
17/11:00pm 27.6 25.1 18.0 55 6.2 NNE 28 35 15 19 1007.8 1006.2 0.0
17/10:30pm 27.4 24.3 18.4 58 5.8 NNE 32 48 17 26 1008.1 1006.6 0.0
17/10:29pm 27.2 24.4 18.2 58 5.8 NNE 30 48 16 26 1008.1 1006.6 0.0
17/10:00pm 26.1 23.7 19.0 65 4.6 NNE 30 37 16 20 1008.8 1007.3 0.0
17/09:30pm 27.1 26.0 19.4 62 5.0 NNE 24 33 13 18 1008.4 1006.9 0.0
17/09:00pm 26.6 25.5 20.2 68 4.2 NE 26 37 14 20 1008.2 1006.7 0.0
17/08:33pm 26.3 24.5 20.4 70 3.9 ENE 30 48 16 26 1008.5 1007.0 0.0
17/08:30pm 26.3 24.6 20.6 71 3.8 ENE 30 43 16 23 1008.5 1007.0 0.0
17/08:10pm 26.5 24.9 20.8 71 3.8 NE 30 52 16 28 1008.0 1006.5 0.0
17/08:00pm 27.6 27.1 20.7 66 4.6 ENE 24 35 13 19 1007.8 1006.2 0.0
17/07:41pm 29.1 26.7 20.0 58 6.0 E 32 50 17 27 1007.6 1006.0 0.0
17/07:30pm 29.4 27.2 17.9 50 7.4 NE 26 50 14 27 1007.3 1005.7 0.0
17/07:29pm 29.6 27.8 17.8 49 7.6 NE 24 50 13 27 1007.2 1005.6 0.0
17/07:00pm 33.1 30.8 18.5 42 9.6 NW 28 33 15 18 1005.8 1004.2 0.0
17/06:54pm 33.2 30.9 18.5 41 9.6 NW 28 33 15 18 1005.6 1004.0 0.0
17/06:30pm 33.3 29.2 18.3 41 9.8 WNW 37 48 20 26 1005.5 1003.9 0.0
17/06:09pm 35.2 32.3 17.0 34 11.8 NW 28 54 15 29 1005.2 1003.6 0.0
17/06:00pm 36.0 32.6 15.7 30 12.9 NNW 28 39 15 21 1004.5 1002.9 0.0
17/05:30pm 37.1 35.0 16.1 29 13.5 NNW 22 28 12 15 1004.1 1002.6 0.0
17/05:00pm 38.2 35.2 15.9 26 14.4 NNW 26 43 14 23 1003.5 1001.9 0.0
17/04:30pm 38.4 36.1 17.7 29 13.6 NW 26 33 14 18 1003.8 1002.3 0.0
17/04:00pm 39.7 37.3 18.3 28 14.3 WNW 28 41 15 22 1003.8 1002.3 0.0
17/03:30pm 35.8 35.7 17.9 34 11.7 ENE 15 32 8 17 1003.8 1002.3 0.0
17/03:14pm 32.7 28.9 17.3 39 9.9 ENE 33 52 18 28 1004.6 1003.0 0.0
17/03:06pm 34.6 33.1 18.6 38 10.5 NNE 24 48 13 26 1004.7 1003.1 0.0
17/03:00pm 34.5 32.1 16.4 34 11.6 N 24 33 13 18 1004.8 1003.2 0.0
17/02:57pm 35.8 33.3 17.0 32 12.2 NNW 26 33 14 18 1004.8 1003.2 0.0
17/02:30pm 41.0 39.4 18.3 26 15.2 NW 24 37 13 20 1005.0 1003.4 0.0
17/02:00pm 39.9 38.9 17.9 27 14.6 NW 20 35 11 19 1005.6 1004.0 0.0
17/01:30pm 39.3 38.1 17.4 27 14.4 NW 20 33 11 18 1006.0 1004.4 0.0
17/01:00pm 40.4 39.5 18.3 27 14.8 WNW 20 32 11 17 1006.4 1004.8 0.0
17/12:30pm 39.9 39.2 19.6 31 13.7 WNW 22 35 12 19 1006.8 1005.2 0.0
17/12:00pm 38.1 36.6 18.5 31 13.0 NW 24 33 13 18 1007.3 1005.7 0.0
17/11:30am 37.4 36.8 19.8 35 11.9 NW 22 33 12 18 1007.8 1006.2 0.0
17/11:00am 36.7 35.5 19.2 36 11.7 NNW 24 41 13 22 1008.3 1006.8 0.0
17/10:30am 36.3 36.1 20.5 39 10.7 NNW 22 37 12 20 1008.4 1006.9 0.0
17/10:00am 35.1 33.8 20.6 42 9.8 NNW 28 35 15 19 1008.8 1007.3 0.0
17/09:30am 34.0 32.7 20.7 45 9.0 NNW 28 33 15 18 1008.8 1007.3 0.0
17/09:00am 32.9 32.4 21.4 50 7.8 NNW 26 33 14 18 1008.8 1007.3 0.2
17/08:30am 31.1 31.3 21.3 56 6.6 N 22 32 12 17 1008.5 1007.0 0.2
17/08:00am 29.9 29.6 19.6 54 6.8 N 20 28 11 15 1008.4 1006.9 0.2
17/07:30am 27.6 29.3 21.6 70 4.0 N 15 19 8 10 1008.6 1007.1 0.2
17/07:00am 26.6 28.5 22.0 76 3.1 NNW 15 17 8 9 1008.6 1007.1 0.2
17/06:30am 28.2 30.3 20.2 62 5.3 SW 9 15 5 8 1008.8 1007.3 0.0
17/06:00am 29.4 30.1 14.4 40 9.2 ENE 4 7 2 4 1008.2 1006.7 0.0
17/05:30am 30.1 30.7 15.4 41 9.1 ENE 6 9 3 5 1007.5 1005.9 0.0
17/05:00am 29.9 30.1 14.8 39 9.3 NE 7 9 4 5 1006.9 1005.3 0.0
17/04:30am 30.9 30.9 15.3 38 9.7 SE 9 11 5 6 1006.5 1004.9 0.0
17/04:00am 30.8 30.3 14.8 37 9.9 S 11 19 6 10 1006.3 1004.7 0.0
17/03:30am 29.9 31.4 15.6 42 8.9 NE 2 7 1 4 1005.5 1003.9 0.0
17/03:00am 29.6 29.2 15.3 41 8.9 NE 11 13 6 7 1004.9 1003.3 0.0
17/02:30am 29.8 29.4 15.1 40 9.1 NNE 11 15 6 8 1004.7 1003.1 0.0
17/02:00am 30.6 30.0 14.7 38 9.8 NNW 11 13 6 7 1004.2 1002.7 0.0
17/01:30am 31.1 30.0 14.3 36 10.3 NNW 13 15 7 8 1004.4 1002.8 0.0
17/01:00am 32.1 30.2 14.3 34 11.0 NNW 17 19 9 10 1004.5 1002.9 0.0
17/12:30am 32.0 30.9 14.2 34 10.9 NNW 13 15 7 8 1004.7 1003.1 0.0
17/12:00am 32.9 31.3 14.0 32 11.6 NNW 15 19 8 10 1004.9 1003.3 0.0
 
Date/Time
EST
Temp
°C
App
Temp
°C
Dew
Point
Rel
Hum
%
Delta-T
°C
Wind Press
QNH
hPa
Press
MSL
hPa
Rain
since 9 am
mm
Dir
 
Spd
km/h
Gust
km/h
Spd
kts
Gust
kts
16/11:30pm 33.4 31.8 14.0 31 11.9 NNW 15 20 8 11 1005.2 1003.6 0.0
16/11:00pm 33.7 32.6 14.2 30 12.1 NNW 13 17 7 9 1005.4 1003.8 0.0
16/10:30pm 33.9 32.3 13.9 30 12.3 N 15 19 8 10 1005.5 1003.9 0.0
16/10:00pm 34.5 32.7 13.3 27 13.0 NNW 15 19 8 10 1005.5 1003.9 0.0
16/09:30pm 34.9 33.0 13.1 27 13.3 NNW 15 19 8 10 1005.6 1004.0 0.0
16/09:00pm 35.2 33.2 12.8 26 13.7 NNW 15 20 8 11 1005.6 1004.0 0.0
16/08:30pm 35.6 33.7 11.9 24 14.3 NNW 13 17 7 9 1005.4 1003.8 0.0
16/08:00pm 36.1 34.7 12.3 24 14.5 NNW 11 15 6 8 1005.2 1003.6 0.0
16/07:30pm 37.1 35.0 12.5 23 15.0 NNW 15 20 8 11 1005.1 1003.5 0.0
16/07:00pm 38.4 36.2 12.2 21 16.0 NNW 15 20 8 11 1004.7 1003.1 0.0
16/06:30pm 39.6 38.0 11.7 19 17.0 NNW 11 19 6 10 1004.5 1002.9 0.0
16/06:00pm 40.0 39.3 12.0 19 17.2 NNW 7 13 4 7 1004.1 1002.6 0.0
16/05:30pm 40.7 39.0 12.6 19 17.4 NNW 13 22 7 12 1004.0 1002.5 0.0
16/05:00pm 40.9 39.3 12.7 19 17.5 WNW 13 26 7 14 1004.0 1002.5 0.0
16/04:30pm 40.9 38.9 12.7 19 17.5 NW 15 24 8 13 1004.1 1002.6 0.0
16/04:00pm 40.6 38.9 12.5 19 17.4 NNW 13 26 7 14 1004.2 1002.7 0.0
16/03:30pm 40.4 39.3 13.1 20 17.0 ENE 11 22 6 12 1004.7 1003.1 0.0
16/03:00pm 39.8 38.0 13.3 20 16.5 NNE 15 28 8 15 1005.1 1003.5 0.0
16/02:30pm 40.5 39.8 13.2 20 17.0 WNW 9 22 5 12 1005.4 1003.8 0.0
16/02:00pm 40.2 39.5 14.4 22 16.4 N 11 19 6 10 1005.9 1004.3 0.0
16/01:30pm 40.1 38.9 15.0 23 16.0 NNW 15 26 8 14 1006.3 1004.7 0.0
16/01:00pm 38.8 37.6 13.9 22 15.6 W 13 28 7 15 1006.9 1005.3 0.0
16/12:30pm 40.2 39.4 15.1 23 16.0 SW 13 20 7 11 1007.4 1005.8 0.0
16/12:00pm 38.6 37.5 14.4 24 15.3 N 13 24 7 13 1008.0 1006.5 0.0
16/11:30am 39.2 38.9 15.5 24 15.2 N 11 22 6 12 1008.4 1006.9 0.0
16/11:00am 37.4 37.2 14.6 25 14.4 W 9 19 5 10 1009.0 1007.5 0.0
16/10:30am 36.7 36.7 15.2 27 13.6 WNW 9 20 5 11 1009.6 1008.0 0.0
16/10:00am 35.4 35.0 15.2 30 12.7 NW 11 20 6 11 1009.9 1008.3 0.0
16/09:30am 34.9 33.2 14.7 29 12.6 WNW 17 24 9 13 1010.2 1008.6 0.0
16/09:00am 34.5 33.6 14.9 31 12.3 NW 13 20 7 11 1010.2 1008.6 0.0
16/08:30am 33.2 31.9 13.8 31 11.9 NNW 13 20 7 11 1010.4 1008.8 0.0
16/08:00am 31.7 30.2 13.0 32 11.3 N 13 17 7 9 1010.2 1008.6 0.0

Other Formats:

Comma delimited format used in spreadsheet applications
http://www.bom.gov.au/fwo/IDQ60801/IDQ60801.94341.axf

JavaScript Object Notation format (JSON) in row-major order
http://www.bom.gov.au/fwo/IDQ60801/IDQ60801.94341.json